Time;durP1;ratioP1;P1;durP2;ratioP2;P2;SDS_P1;SDS_P2;PMS_P1;PMS_P2;Temp;Humidity;BMP_temperature;BMP_pressure;BME280_temperature;BME280_humidity;BME280_pressure;Samples;Min_cycle;Max_cycle;Signal;HPM_P1;HPM_P2
2024/01/20 00:02:21;;;;;;;23.60;13.43;;;-3.30;99.90;;;;;;5111424;27;20689;-74
2024/01/20 00:04:47;;;;;;;31.50;16.33;;;-3.50;99.90;;;;;;5094420;27;20181;-74
2024/01/20 00:07:13;;;;;;;21.07;12.60;;;-3.70;99.90;;;;;;5111580;27;20191;-74
2024/01/20 00:09:38;;;;;;;24.70;14.30;;;-3.80;99.90;;;;;;5129664;27;20220;-74
2024/01/20 00:12:04;;;;;;;26.20;14.90;;;-3.90;99.90;;;;;;5129629;27;20419;-74
2024/01/20 00:14:30;;;;;;;24.27;13.70;;;-3.80;99.90;;;;;;5129667;27;20185;-74
2024/01/20 00:16:55;;;;;;;25.93;14.97;;;-3.70;99.90;;;;;;5129724;27;20490;-74
2024/01/20 00:19:21;;;;;;;29.00;15.30;;;-3.60;99.90;;;;;;5111105;27;20208;-74
2024/01/20 00:21:46;;;;;;;28.90;16.10;;;-3.50;99.90;;;;;;5111206;27;20716;-74
2024/01/20 00:24:12;;;;;;;29.10;16.30;;;-3.40;99.90;;;;;;5129404;27;20234;-74
2024/01/20 00:26:38;;;;;;;43.23;19.67;;;-3.30;99.90;;;;;;5110973;27;20575;-74
2024/01/20 00:29:03;;;;;;;33.80;18.47;;;-3.20;99.90;;;;;;5129154;27;20880;-74
2024/01/20 00:31:29;;;;;;;32.07;17.40;;;-3.10;99.90;;;;;;5129505;27;20261;-74
2024/01/20 00:33:54;;;;;;;29.70;17.47;;;-3.10;99.90;;;;;;5129471;27;20693;-74
2024/01/20 00:36:20;;;;;;;31.03;17.23;;;-3.00;99.90;;;;;;5110921;27;20295;-74
2024/01/20 00:38:45;;;;;;;30.73;16.40;;;-3.00;99.90;;;;;;5129244;27;20201;-74
2024/01/20 00:41:11;;;;;;;31.20;16.93;;;-3.10;99.90;;;;;;5093951;28;20184;-74
2024/01/20 00:43:38;;;;;;;32.25;17.92;;;-3.20;99.90;;;;;;5093992;27;20296;-74
2024/01/20 00:46:03;;;;;;;27.60;16.00;;;-3.30;99.90;;;;;;5110731;28;20739;-74
2024/01/20 00:48:29;;;;;;;32.77;17.17;;;-3.30;99.90;;;;;;5110723;28;20295;-73
2024/01/20 00:50:55;;;;;;;31.03;18.00;;;-3.40;99.90;;;;;;5129277;28;20257;-73
2024/01/20 00:53:20;;;;;;;41.37;18.73;;;-3.40;99.90;;;;;;5093673;28;20660;-73
2024/01/20 00:55:46;;;;;;;35.27;18.73;;;-3.40;99.90;;;;;;5110536;28;20227;-74
2024/01/20 00:58:11;;;;;;;27.63;17.97;;;-3.40;99.90;;;;;;5129097;28;20356;-74
2024/01/20 01:00:38;;;;;;;37.93;18.90;;;-3.40;99.90;;;;;;5130485;27;20173;-74
2024/01/20 01:03:04;;;;;;;37.33;19.25;;;-3.30;99.90;;;;;;5133349;27;20177;-74
2024/01/20 01:05:29;;;;;;;36.05;19.60;;;-3.20;99.90;;;;;;5133433;27;20173;-73
2024/01/20 01:07:56;;;;;;;32.27;17.63;;;-3.20;99.90;;;;;;5133217;27;20223;-73
2024/01/20 01:10:22;;;;;;;36.38;20.15;;;-3.20;99.90;;;;;;5114651;27;20249;-73
2024/01/20 01:12:49;;;;;;;40.27;19.10;;;-3.20;99.90;;;;;;5133286;27;20644;-73
2024/01/20 01:15:15;;;;;;;37.28;19.67;;;-3.50;99.90;;;;;;5114462;27;20422;-73
2024/01/20 01:17:40;;;;;;;32.20;16.80;;;-3.50;99.90;;;;;;5114681;27;20184;-73
2024/01/20 01:20:07;;;;;;;34.20;18.00;;;-3.60;99.90;;;;;;5114630;27;20467;-72
2024/01/20 01:22:32;;;;;;;30.30;18.25;;;-3.50;99.90;;;;;;5133103;27;20181;-73
2024/01/20 01:24:58;;;;;;;33.30;18.50;;;-3.40;99.90;;;;;;5097581;27;20570;-74
2024/01/20 01:27:23;;;;;;;32.67;19.50;;;-3.50;99.90;;;;;;5114641;27;20184;-74
2024/01/20 01:29:49;;;;;;;34.83;18.50;;;-3.50;99.90;;;;;;5133001;27;20213;-74
2024/01/20 01:32:14;;;;;;;31.50;16.57;;;-3.60;99.90;;;;;;5133035;27;20281;-74
2024/01/20 01:34:40;;;;;;;29.97;16.90;;;-3.70;99.90;;;;;;5132892;27;20667;-74
2024/01/20 01:37:05;;;;;;;34.77;18.37;;;-3.60;99.90;;;;;;5114264;27;21009;-74
2024/01/20 01:39:31;;;;;;;35.60;18.90;;;-3.50;99.90;;;;;;5114097;27;20265;-73
2024/01/20 01:41:57;;;;;;;32.23;17.90;;;-3.60;99.90;;;;;;5132883;27;20177;-73
2024/01/20 01:44:22;;;;;;;32.77;18.00;;;-3.60;99.90;;;;;;5114452;27;20178;-73
2024/01/20 01:46:48;;;;;;;35.43;18.77;;;-3.60;99.90;;;;;;5132709;27;20268;-73
2024/01/20 01:49:14;;;;;;;37.30;18.40;;;-3.60;99.90;;;;;;5132649;27;20221;-73
2024/01/20 01:51:40;;;;;;;37.15;20.00;;;-3.60;99.90;;;;;;5132771;27;20264;-72
2024/01/20 01:54:08;;;;;;;29.50;17.20;;;-3.70;99.90;;;;;;5132742;27;20259;-73
2024/01/20 01:56:35;;;;;;;39.38;16.80;;;-4.10;99.90;;;;;;5114362;27;20181;-73
2024/01/20 01:59:01;;;;;;;34.40;17.92;;;-4.20;99.90;;;;;;5113839;27;20205;-72
2024/01/20 02:01:27;;;;;;;33.50;18.47;;;-4.20;99.90;;;;;;5113873;27;20207;-73
2024/01/20 02:03:52;;;;;;;30.93;17.70;;;-4.10;99.90;;;;;;5132656;27;20853;-73
2024/01/20 02:06:18;;;;;;;36.53;17.87;;;-4.20;99.90;;;;;;5132578;27;20173;-73
2024/01/20 02:08:44;;;;;;;34.30;18.00;;;-4.20;99.90;;;;;;5132335;27;20238;-73
2024/01/20 02:11:09;;;;;;;29.97;15.87;;;-4.20;99.90;;;;;;5132272;27;20249;-73
2024/01/20 02:13:35;;;;;;;27.50;16.60;;;-4.30;99.90;;;;;;5131381;27;20181;-73
2024/01/20 02:16:02;;;;;;;30.52;17.10;;;-4.60;99.90;;;;;;5113789;27;20250;-73
2024/01/20 02:18:28;;;;;;;24.02;14.45;;;-4.80;99.90;;;;;;5132400;27;20696;-73
2024/01/20 02:20:54;;;;;;;28.35;15.32;;;-5.00;99.90;;;;;;5113875;27;20189;-73
2024/01/20 02:23:20;;;;;;;26.13;15.47;;;-5.10;99.90;;;;;;5132725;27;20181;-73
2024/01/20 02:25:46;;;;;;;29.43;15.70;;;-5.10;99.90;;;;;;5114287;27;20453;-73
2024/01/20 02:28:12;;;;;;;27.10;16.40;;;-5.00;99.90;;;;;;5132481;27;21134;-72
2024/01/20 02:30:38;;;;;;;29.50;17.02;;;-4.90;99.90;;;;;;5132091;27;20184;-73
2024/01/20 02:33:04;;;;;;;33.43;18.17;;;-4.80;99.90;;;;;;5079550;27;20177;-73
2024/01/20 02:35:29;;;;;;;32.70;16.30;;;-4.80;99.90;;;;;;5131941;27;20664;-73
2024/01/20 02:37:55;;;;;;;33.67;16.90;;;-4.80;99.90;;;;;;5096316;27;20216;-72
2024/01/20 02:40:21;;;;;;;32.22;17.55;;;-4.90;99.90;;;;;;5113703;27;20276;-73
2024/01/20 02:42:47;;;;;;;39.33;16.00;;;-5.10;99.90;;;;;;5132152;27;20565;-73
2024/01/20 02:45:12;;;;;;;28.97;17.17;;;-5.20;99.90;;;;;;5113231;27;20200;-73
2024/01/20 02:47:38;;;;;;;28.40;15.40;;;-5.20;99.90;;;;;;5131716;27;20642;-73
2024/01/20 02:50:04;;;;;;;26.30;13.57;;;-5.30;99.90;;;;;;5112682;27;20240;-73
2024/01/20 02:52:30;;;;;;;28.92;15.77;;;-5.40;99.90;;;;;;5096361;27;20184;-72
2024/01/20 02:54:56;;;;;;;25.33;14.43;;;-5.40;99.90;;;;;;5113359;27;20183;-73
2024/01/20 02:57:22;;;;;;;29.13;14.40;;;-5.40;99.90;;;;;;5112856;27;20504;-73
2024/01/20 02:59:47;;;;;;;23.20;12.87;;;-5.30;99.90;;;;;;5131533;27;20206;-74
2024/01/20 03:02:13;;;;;;;24.60;14.50;;;-5.20;99.90;;;;;;5096018;27;20197;-74
2024/01/20 03:04:38;;;;;;;27.30;15.30;;;-5.40;99.90;;;;;;5131549;27;20216;-74
2024/01/20 03:07:04;;;;;;;28.60;14.70;;;-5.50;99.90;;;;;;5113101;27;20191;-73
2024/01/20 03:09:29;;;;;;;25.80;14.90;;;-5.50;99.90;;;;;;5131193;27;20230;-73
2024/01/20 03:11:55;;;;;;;21.00;13.67;;;-5.50;99.90;;;;;;5112834;27;20231;-73
2024/01/20 03:14:20;;;;;;;24.37;14.67;;;-5.60;99.90;;;;;;5113078;27;20237;-74
2024/01/20 03:16:46;;;;;;;29.03;15.23;;;-5.60;99.90;;;;;;5131467;27;20178;-73
2024/01/20 03:19:12;;;;;;;27.17;15.00;;;-5.50;99.90;;;;;;5131486;27;20238;-73
2024/01/20 03:21:37;;;;;;;27.40;14.63;;;-5.50;99.90;;;;;;5131888;27;20185;-73
2024/01/20 03:24:03;;;;;;;22.90;13.37;;;-5.40;99.90;;;;;;5131378;27;20181;-74
2024/01/20 03:26:29;;;;;;;25.53;14.77;;;-5.50;99.90;;;;;;5112786;27;21037;-74
2024/01/20 03:28:54;;;;;;;24.37;14.03;;;-5.50;99.90;;;;;;5131342;27;20219;-74
2024/01/20 03:31:20;;;;;;;28.33;15.30;;;-5.50;99.90;;;;;;5131421;27;20259;-74
2024/01/20 03:33:45;;;;;;;25.80;14.33;;;-5.50;99.90;;;;;;5131653;27;20183;-74
2024/01/20 03:36:11;;;;;;;23.80;14.00;;;-5.50;99.90;;;;;;5112809;27;20192;-73
2024/01/20 03:38:37;;;;;;;25.77;14.63;;;-5.50;99.90;;;;;;5131182;27;20193;-74
2024/01/20 03:41:03;;;;;;;28.47;13.70;;;-5.60;99.90;;;;;;5112635;27;20793;-74
2024/01/20 03:43:28;;;;;;;22.97;13.77;;;-5.60;99.90;;;;;;5112286;27;20237;-74
2024/01/20 03:45:55;;;;;;;24.87;13.73;;;-5.60;99.90;;;;;;5130757;27;20501;-74
2024/01/20 03:48:21;;;;;;;23.25;14.13;;;-5.70;99.90;;;;;;5130711;27;20208;-75
2024/01/20 03:50:47;;;;;;;29.67;14.53;;;-5.80;99.90;;;;;;5131317;27;20173;-73
2024/01/20 03:53:12;;;;;;;22.47;13.30;;;-5.90;99.90;;;;;;5130882;27;20181;-74
2024/01/20 03:55:38;;;;;;;33.30;16.43;;;-5.80;99.90;;;;;;5130709;27;20172;-74
2024/01/20 03:58:04;;;;;;;28.07;14.87;;;-5.80;99.90;;;;;;5130646;27;20212;-74
2024/01/20 04:00:29;;;;;;;22.10;13.07;;;-5.90;99.90;;;;;;5112214;27;20179;-73
2024/01/20 04:02:56;;;;;;;25.40;14.63;;;-6.00;99.90;;;;;;5111981;27;20537;-73
2024/01/20 04:05:21;;;;;;;22.70;14.77;;;-6.00;99.90;;;;;;5130403;27;20184;-74
2024/01/20 04:07:48;;;;;;;27.27;14.40;;;-6.10;99.90;;;;;;5130314;27;20532;-74
2024/01/20 04:10:14;;;;;;;23.75;14.80;;;-6.10;99.90;;;;;;5111492;27;20295;-74
2024/01/20 04:12:41;;;;;;;26.83;14.73;;;-6.10;99.90;;;;;;5094730;27;20176;-73
2024/01/20 04:15:08;;;;;;;30.75;14.45;;;-6.10;99.90;;;;;;5129785;27;20184;-73
2024/01/20 04:17:34;;;;;;;23.58;13.68;;;-6.10;99.90;;;;;;5129806;27;20176;-73
2024/01/20 04:19:59;;;;;;;24.67;13.73;;;-6.20;99.90;;;;;;5111393;27;20214;-73
2024/01/20 04:22:25;;;;;;;24.63;13.73;;;-6.20;99.90;;;;;;5129793;27;20641;-74
2024/01/20 04:24:51;;;;;;;19.57;12.30;;;-6.20;99.90;;;;;;5129622;27;20190;-74
2024/01/20 04:27:16;;;;;;;26.70;14.03;;;-6.30;99.90;;;;;;5129687;27;20695;-74
2024/01/20 04:29:42;;;;;;;31.10;13.50;;;-6.30;99.90;;;;;;5129499;27;20246;-73
2024/01/20 04:32:07;;;;;;;30.90;15.13;;;-6.30;99.90;;;;;;5129598;27;20175;-73
2024/01/20 04:34:33;;;;;;;27.17;14.50;;;-6.30;99.90;;;;;;5093719;27;20658;-73
2024/01/20 04:36:59;;;;;;;22.83;13.63;;;-6.30;99.90;;;;;;5129072;27;20223;-73
2024/01/20 04:39:24;;;;;;;34.23;15.70;;;-6.40;99.90;;;;;;5110953;27;20733;-73
2024/01/20 04:41:50;;;;;;;31.90;13.93;;;-6.40;99.90;;;;;;5110733;27;20189;-73
2024/01/20 04:44:15;;;;;;;29.27;16.23;;;-6.40;99.90;;;;;;5094007;28;20291;-73
2024/01/20 04:46:41;;;;;;;26.97;14.40;;;-6.40;99.90;;;;;;5129420;27;20186;-74
2024/01/20 04:49:07;;;;;;;28.57;14.37;;;-6.30;99.90;;;;;;5129248;28;20216;-73
2024/01/20 04:51:32;;;;;;;23.60;14.27;;;-6.10;99.90;;;;;;5110979;28;20608;-73
2024/01/20 04:53:58;;;;;;;31.10;14.90;;;-6.10;99.90;;;;;;5110573;28;20217;-73
2024/01/20 04:56:23;;;;;;;32.20;16.30;;;-6.00;99.90;;;;;;5129114;28;20182;-74
2024/01/20 04:58:49;;;;;;;32.07;16.50;;;-5.80;99.90;;;;;;5129081;28;20709;-73
2024/01/20 05:01:15;;;;;;;29.45;16.05;;;-5.70;99.90;;;;;;5110557;28;20205;-73
2024/01/20 05:03:41;;;;;;;36.30;17.73;;;-5.60;99.90;;;;;;5129145;28;20990;-72
2024/01/20 05:06:06;;;;;;;32.83;17.10;;;-5.60;99.90;;;;;;5129134;28;20608;-73
2024/01/20 05:08:32;;;;;;;37.73;17.23;;;-5.60;99.90;;;;;;5093511;28;20308;-74
2024/01/20 05:10:58;;;;;;;35.03;16.83;;;-5.60;99.90;;;;;;5129143;28;20218;-74
2024/01/20 05:13:25;;;;;;;35.30;17.93;;;-5.60;99.90;;;;;;5110537;28;20177;-73
2024/01/20 05:15:50;;;;;;;85.97;19.77;;;-5.50;99.90;;;;;;5110370;28;20180;-74
2024/01/20 05:18:16;;;;;;;208.90;21.10;;;-5.50;99.90;;;;;;5093444;28;20204;-73
2024/01/20 05:20:41;;;;;;;40.07;17.60;;;-5.50;99.90;;;;;;5129057;28;20180;-73
2024/01/20 05:23:07;;;;;;;41.43;17.63;;;-5.60;99.90;;;;;;5129048;28;20177;-73
2024/01/20 05:25:33;;;;;;;239.70;23.63;;;-5.60;99.90;;;;;;5129096;28;20185;-74
2024/01/20 05:27:58;;;;;;;327.63;24.37;;;-5.70;99.90;;;;;;5128957;28;20959;-74
2024/01/20 05:30:24;;;;;;;234.73;23.47;;;-5.80;99.90;;;;;;5093446;28;20212;-73
2024/01/20 05:32:49;;;;;;;239.97;24.00;;;-6.10;99.90;;;;;;5128841;28;20650;-74
2024/01/20 05:35:15;;;;;;;61.80;20.20;;;-6.20;99.90;;;;;;5110217;28;20187;-74
2024/01/20 05:37:41;;;;;;;49.03;20.00;;;-6.30;99.90;;;;;;5110205;28;20281;-74
2024/01/20 05:40:07;;;;;;;110.50;22.10;;;-6.30;99.90;;;;;;5128889;28;20187;-74
2024/01/20 05:42:32;;;;;;;108.53;21.42;;;-6.20;99.90;;;;;;5110101;28;20207;-73
2024/01/20 05:44:59;;;;;;;100.57;22.77;;;-6.30;99.90;;;;;;5128884;28;20187;-74
2024/01/20 05:47:25;;;;;;;100.43;21.30;;;-6.40;99.90;;;;;;5131279;27;20181;-74
2024/01/20 05:49:51;;;;;;;45.72;19.20;;;-6.50;99.90;;;;;;5132488;27;20217;-74
2024/01/20 05:52:16;;;;;;;37.17;16.70;;;-6.60;99.90;;;;;;5114149;27;20187;-74
2024/01/20 05:54:42;;;;;;;46.23;18.80;;;-6.60;99.90;;;;;;5132484;27;20264;-73
2024/01/20 05:57:08;;;;;;;57.10;18.77;;;-6.60;99.90;;;;;;5113682;27;20857;-75
2024/01/20 05:59:34;;;;;;;79.57;18.37;;;-6.70;99.90;;;;;;5114004;27;20223;-74
2024/01/20 06:02:00;;;;;;;75.53;18.97;;;-7.00;99.90;;;;;;5132220;27;20419;-73
2024/01/20 06:04:26;;;;;;;41.17;19.15;;;-7.20;99.90;;;;;;5132286;27;20180;-74
2024/01/20 06:06:51;;;;;;;40.03;17.50;;;-7.30;99.90;;;;;;5132154;27;20323;-74
2024/01/20 06:09:17;;;;;;;43.17;18.37;;;-7.30;99.90;;;;;;5113526;27;20215;-74
2024/01/20 06:11:42;;;;;;;28.23;15.57;;;-7.20;99.90;;;;;;5113507;27;20191;-74
2024/01/20 06:14:08;;;;;;;24.00;13.60;;;-7.20;99.90;;;;;;5113762;27;20558;-73
2024/01/20 06:16:36;;;;;;;30.23;15.27;;;-7.10;99.90;;;;;;5131886;27;20187;-74
2024/01/20 06:19:01;;;;;;;29.02;13.90;;;-7.10;99.90;;;;;;5113863;27;20675;-74
2024/01/20 06:21:27;;;;;;;25.73;14.30;;;-7.10;99.90;;;;;;5131882;27;20186;-74
2024/01/20 06:23:53;;;;;;;24.50;13.93;;;-7.00;99.90;;;;;;5113629;27;20290;-74
2024/01/20 06:26:19;;;;;;;29.10;14.90;;;-6.90;99.90;;;;;;5113176;27;20178;-74
2024/01/20 06:28:44;;;;;;;34.93;15.77;;;-6.90;99.90;;;;;;5113060;27;20566;-73
2024/01/20 06:31:21;;;;;;;32.33;16.17;;;-7.00;99.90;;;;;;5131839;27;21018;-74
2024/01/20 06:33:47;;;;;;;46.58;19.95;;;-7.00;99.90;;;;;;5112858;27;20177;-74
2024/01/20 06:36:13;;;;;;;54.92;22.73;;;-7.10;99.90;;;;;;5131584;27;20245;-74
2024/01/20 06:38:38;;;;;;;41.40;20.13;;;-7.20;99.90;;;;;;5095812;27;20202;-74
2024/01/20 06:41:04;;;;;;;36.57;17.90;;;-7.20;99.90;;;;;;5113252;27;20860;-74
2024/01/20 06:43:30;;;;;;;41.50;18.63;;;-7.20;99.90;;;;;;5131589;27;20182;-74
2024/01/20 06:45:55;;;;;;;41.97;19.30;;;-7.20;99.90;;;;;;5112925;27;20226;-74
2024/01/20 06:48:21;;;;;;;26.50;14.83;;;-7.30;99.90;;;;;;5112467;27;20217;-74
2024/01/20 06:50:47;;;;;;;25.27;13.50;;;-7.30;99.90;;;;;;5131406;27;20187;-74
2024/01/20 06:53:13;;;;;;;37.95;15.55;;;-7.30;99.90;;;;;;5131354;27;20183;-74
2024/01/20 06:55:38;;;;;;;27.67;14.97;;;-7.30;99.90;;;;;;5095612;27;20278;-74
2024/01/20 06:58:04;;;;;;;29.13;14.70;;;-7.30;99.90;;;;;;5112054;27;20198;-74
2024/01/20 07:00:30;;;;;;;24.97;14.70;;;-7.30;99.90;;;;;;5131270;27;20191;-75
2024/01/20 07:02:58;;;;;;;29.35;14.63;;;-7.30;99.90;;;;;;5112298;27;20740;-75
2024/01/20 07:05:24;;;;;;;32.00;14.65;;;-7.40;99.90;;;;;;5131046;27;20195;-75
2024/01/20 07:07:49;;;;;;;26.00;12.80;;;-7.40;99.90;;;;;;5112188;27;20187;-74
2024/01/20 07:10:15;;;;;;;23.63;12.93;;;-7.40;99.90;;;;;;5130917;27;20213;-75
2024/01/20 07:12:40;;;;;;;28.77;14.50;;;-7.20;99.90;;;;;;5112502;27;20185;-74
2024/01/20 07:15:06;;;;;;;22.07;12.87;;;-7.30;99.90;;;;;;5112383;27;20220;-75
2024/01/20 07:17:32;;;;;;;28.60;14.00;;;-7.30;99.90;;;;;;5112493;27;20235;-75
2024/01/20 07:19:58;;;;;;;20.13;11.37;;;-7.30;99.90;;;;;;5112222;27;20741;-74
2024/01/20 07:22:23;;;;;;;19.80;10.80;;;-7.30;99.90;;;;;;5112640;27;20213;-76
2024/01/20 07:24:49;;;;;;;23.23;12.13;;;-7.30;99.90;;;;;;5112514;27;20183;-75
2024/01/20 07:27:15;;;;;;;19.53;10.73;;;-7.30;99.90;;;;;;5130778;27;20643;-76
2024/01/20 07:29:41;;;;;;;19.80;10.50;;;-7.30;99.90;;;;;;5130484;27;20252;-74
2024/01/20 07:32:07;;;;;;;27.80;11.82;;;-7.20;99.90;;;;;;5095229;27;20684;-75
2024/01/20 07:34:32;;;;;;;17.67;10.40;;;-7.20;99.90;;;;;;5130614;27;20182;-75
2024/01/20 07:36:58;;;;;;;19.93;11.20;;;-7.20;99.90;;;;;;5130447;27;20443;-76
2024/01/20 07:39:24;;;;;;;15.90;9.73;;;-7.20;99.90;;;;;;5094671;27;20297;-75
2024/01/20 07:41:49;;;;;;;21.80;10.13;;;-7.10;99.90;;;;;;5130453;27;20187;-75
2024/01/20 07:44:15;;;;;;;24.40;13.50;;;-7.10;99.90;;;;;;5094581;27;20195;-75
2024/01/20 07:46:40;;;;;;;23.37;13.10;;;-7.00;99.90;;;;;;5130291;27;20190;-75
2024/01/20 07:49:06;;;;;;;31.70;16.37;;;-6.80;99.90;;;;;;5130112;27;20210;-76
2024/01/20 07:51:32;;;;;;;36.73;16.40;;;-6.80;99.90;;;;;;5111711;27;20180;-74
2024/01/20 07:53:57;;;;;;;38.10;16.93;;;-6.60;99.90;;;;;;5111483;27;20211;-73
2024/01/20 07:56:23;;;;;;;35.10;15.53;;;-6.50;99.90;;;;;;5111700;27;20179;-73
2024/01/20 07:58:49;;;;;;;37.40;18.17;;;-6.30;99.90;;;;;;5130048;27;20587;-73
2024/01/20 08:01:17;;;;;;;55.10;18.43;;;-6.20;99.90;;;;;;5130098;27;20191;-73
2024/01/20 08:03:42;;;;;;;48.00;17.63;;;-6.20;99.90;;;;;;5129776;27;20268;-75
2024/01/20 08:06:08;;;;;;;45.53;19.00;;;-6.10;99.90;;;;;;5111664;27;20332;-73
2024/01/20 08:08:34;;;;;;;42.17;17.83;;;-6.00;99.90;;;;;;5111182;27;20886;-74
2024/01/20 08:10:59;;;;;;;73.53;18.17;;;-5.90;99.90;;;;;;5093421;27;20184;-74
2024/01/20 08:13:25;;;;;;;74.93;19.03;;;-5.90;99.90;;;;;;5129681;27;20559;-75
2024/01/20 08:15:51;;;;;;;81.17;17.80;;;-5.90;99.90;;;;;;5111146;27;20188;-75
2024/01/20 08:18:16;;;;;;;75.47;20.13;;;-5.90;99.90;;;;;;5093517;27;20681;-75
2024/01/20 08:20:42;;;;;;;263.83;23.13;;;-5.90;99.90;;;;;;5109720;27;20647;-73
2024/01/20 08:23:07;;;;;;;113.43;18.17;;;-5.90;99.90;;;;;;5109933;27;20186;-75
2024/01/20 08:25:33;;;;;;;81.90;19.50;;;-6.00;99.90;;;;;;5128219;27;20183;-73
2024/01/20 08:27:59;;;;;;;349.57;27.13;;;-6.10;99.90;;;;;;5128336;27;20218;-70
2024/01/20 08:30:24;;;;;;;361.50;30.07;;;-6.10;99.90;;;;;;5128284;27;20210;-75
2024/01/20 08:32:50;;;;;;;94.53;19.73;;;-6.10;99.90;;;;;;5109646;27;20171;-75
2024/01/20 08:35:15;;;;;;;139.30;20.17;;;-5.90;99.90;;;;;;5109922;28;20679;-75
2024/01/20 08:37:41;;;;;;;89.60;19.43;;;-5.80;99.90;;;;;;5128011;27;20196;-74
2024/01/20 08:40:07;;;;;;;123.37;19.03;;;-5.70;99.90;;;;;;5109771;27;20734;-73
2024/01/20 08:42:33;;;;;;;137.25;19.10;;;-5.60;99.90;;;;;;5128752;27;20189;-73
2024/01/20 08:44:58;;;;;;;213.00;20.67;;;-5.50;99.90;;;;;;5109818;27;20859;-73
2024/01/20 08:47:24;;;;;;;53.60;17.87;;;-5.50;99.90;;;;;;5128192;27;20180;-72
2024/01/20 08:49:51;;;;;;;79.93;18.17;;;-5.00;99.90;;;;;;5127944;27;20462;-74
2024/01/20 08:52:18;;;;;;;84.82;18.00;;;-4.60;99.90;;;;;;5128187;28;20177;-74
2024/01/20 08:54:43;;;;;;;48.38;15.98;;;-4.10;99.90;;;;;;5128003;28;20192;-75
2024/01/20 08:57:09;;;;;;;30.20;17.10;;;-3.30;99.90;;;;;;5109958;28;20644;-75
2024/01/20 08:59:34;;;;;;;31.23;17.90;;;-2.10;99.90;;;;;;5128264;28;20207;-75
2024/01/20 09:02:00;;;;;;;30.33;17.60;;;-0.60;99.90;;;;;;5109685;28;20188;-74
2024/01/20 09:04:26;;;;;;;34.57;18.70;;;0.60;99.90;;;;;;5128184;28;20192;-72
2024/01/20 09:06:51;;;;;;;33.93;18.53;;;1.40;99.90;;;;;;5128469;28;20189;-72
2024/01/20 09:09:18;;;;;;;38.90;20.70;;;1.30;99.90;;;;;;5128303;28;20213;-75
2024/01/20 09:11:43;;;;;;;32.38;18.92;;;0.90;99.90;;;;;;5128494;28;20277;-74
2024/01/20 09:14:09;;;;;;;35.40;20.83;;;0.50;99.90;;;;;;5092930;28;20268;-74
2024/01/20 09:16:35;;;;;;;40.00;21.03;;;0.30;99.90;;;;;;5128400;28;20418;-74
2024/01/20 09:19:00;;;;;;;32.03;19.37;;;0.10;99.90;;;;;;5128381;28;20559;-72
2024/01/20 09:21:26;;;;;;;35.80;19.00;;;0.10;99.90;;;;;;5094093;27;20237;-74
2024/01/20 09:23:51;;;;;;;34.57;19.33;;;0.30;99.90;;;;;;5132248;27;20185;-72
2024/01/20 09:26:17;;;;;;;31.40;19.23;;;0.10;99.90;;;;;;5113573;27;20749;-74
2024/01/20 09:28:42;;;;;;;40.17;21.23;;;-0.20;99.90;;;;;;5096229;27;20224;-74
2024/01/20 09:31:08;;;;;;;36.10;20.27;;;-0.50;99.90;;;;;;5113362;27;20186;-74
2024/01/20 09:33:34;;;;;;;29.60;17.93;;;-0.70;99.90;;;;;;5113121;27;20190;-74
2024/01/20 09:36:02;;;;;;;32.80;17.90;;;-0.80;99.90;;;;;;5131531;27;20178;-74
2024/01/20 09:38:28;;;;;;;33.60;19.52;;;-1.20;99.90;;;;;;5131543;27;20197;-74
2024/01/20 09:40:58;;;;;;;35.55;21.15;;;-1.30;99.90;;;;;;5131554;27;20242;-74
2024/01/20 09:43:25;;;;;;;35.90;21.60;;;-1.00;99.90;;;;;;5113534;27;20177;-73
2024/01/20 09:45:52;;;;;;;32.55;19.60;;;-0.40;99.90;;;;;;5112609;27;20188;-73
2024/01/20 09:48:18;;;;;;;30.20;18.55;;;1.50;99.90;;;;;;5131378;27;20212;-73
2024/01/20 09:50:44;;;;;;;31.27;20.92;;;3.40;99.90;;;;;;5112846;27;20217;-73
2024/01/20 09:53:14;;;;;;;32.83;21.75;;;4.90;99.90;;;;;;5131182;27;20830;-73
2024/01/20 09:55:45;;;;;;;30.30;19.80;;;6.30;97.30;;;;;;5131058;27;20731;-73
2024/01/20 09:58:12;;;;;;;27.60;19.90;;;7.30;94.70;;;;;;5130981;27;20430;-73
2024/01/20 10:00:39;;;;;;;28.10;20.07;;;8.10;92.40;;;;;;5130949;27;21233;-73
2024/01/20 10:03:07;;;;;;;28.40;18.90;;;8.90;90.30;;;;;;5095552;27;20463;-72
2024/01/20 10:05:34;;;;;;;27.70;20.67;;;9.40;87.60;;;;;;5130832;27;20419;-72
2024/01/20 10:08:00;;;;;;;29.07;21.70;;;9.90;81.60;;;;;;5111926;27;20442;-73
2024/01/20 10:10:26;;;;;;;30.90;21.80;;;10.10;78.60;;;;;;5112174;27;20470;-73
2024/01/20 10:12:53;;;;;;;36.43;24.50;;;10.40;78.00;;;;;;5130854;27;20422;-72
2024/01/20 10:15:25;;;;;;;32.53;21.97;;;11.00;77.50;;;;;;5122285;27;20188;-73
2024/01/20 10:17:51;;;;;;;33.03;24.43;;;11.30;76.20;;;;;;5112532;27;20428;-73
2024/01/20 10:20:21;;;;;;;32.23;23.87;;;11.30;72.90;;;;;;5130632;27;20421;-73
2024/01/20 10:22:47;;;;;;;30.43;23.10;;;11.60;73.50;;;;;;5130780;27;20843;-72
2024/01/20 10:25:19;;;;;;;39.40;26.40;;;11.50;71.80;;;;;;5111794;27;20444;-72
2024/01/20 10:27:49;;;;;;;38.73;27.67;;;11.10;70.80;;;;;;5112836;27;20428;-71
2024/01/20 10:30:20;;;;;;;40.40;28.70;;;10.90;70.50;;;;;;5130340;27;20847;-73
2024/01/20 10:32:46;;;;;;;39.40;27.30;;;11.10;71.50;;;;;;5129705;27;20508;-73
2024/01/20 10:35:13;;;;;;;48.97;28.23;;;11.40;70.30;;;;;;5130356;27;20843;-73
2024/01/20 10:37:40;;;;;;;42.50;26.97;;;11.70;69.70;;;;;;5130051;27;20821;-73
2024/01/20 10:40:13;;;;;;;39.67;26.67;;;12.00;67.40;;;;;;5130455;27;20409;-73
2024/01/20 10:42:47;;;;;;;43.80;27.43;;;11.70;68.10;;;;;;5130576;27;20452;-72
2024/01/20 10:45:18;;;;;;;40.33;27.67;;;11.90;67.50;;;;;;5130710;27;20420;-72
2024/01/20 10:48:15;;;;;;;40.10;27.97;;;12.00;67.60;;;;;;5130597;27;20939;-72
2024/01/20 10:51:07;;;;;;;38.90;27.53;;;11.80;66.90;;;;;;5130664;27;20998;-73
2024/01/20 10:53:32;;;;;;;40.80;27.27;;;11.70;66.60;;;;;;5130733;27;20497;-72
2024/01/20 10:55:59;;;;;;;39.80;28.20;;;11.60;66.90;;;;;;5130487;27;20500;-72
2024/01/20 10:58:39;;;;;;;40.87;27.53;;;11.70;67.40;;;;;;5130393;27;20277;-73
2024/01/20 11:01:06;;;;;;;38.43;25.27;;;11.50;67.80;;;;;;5131047;27;20914;-71
2024/01/20 11:03:32;;;;;;;39.93;26.63;;;11.00;69.50;;;;;;5112334;27;20431;-73
2024/01/20 11:05:58;;;;;;;39.27;24.57;;;10.50;69.40;;;;;;5130692;27;21087;-73
2024/01/20 11:08:25;;;;;;;34.37;23.83;;;10.60;69.60;;;;;;5130719;27;20566;-72
2024/01/20 11:10:55;;;;;;;37.60;23.20;;;10.70;69.50;;;;;;5130852;27;20214;-72
2024/01/20 11:13:25;;;;;;;32.47;21.53;;;11.10;68.90;;;;;;5131155;27;20912;-72
2024/01/20 11:15:51;;;;;;;30.90;22.43;;;11.10;68.60;;;;;;5130843;27;20438;-73
2024/01/20 11:18:18;;;;;;;29.83;20.47;;;11.10;68.40;;;;;;5112417;27;20642;-72
2024/01/20 11:21:03;;;;;;;28.50;19.83;;;11.00;68.30;;;;;;5131058;27;20202;-72
2024/01/20 11:23:29;;;;;;;31.03;20.13;;;11.00;67.20;;;;;;5113389;27;20411;-73
2024/01/20 11:25:57;;;;;;;32.40;21.37;;;10.50;68.90;;;;;;5130142;27;20426;-73
2024/01/20 11:28:30;;;;;;;38.00;22.77;;;10.40;69.10;;;;;;5130140;27;20540;-73
2024/01/20 11:30:56;;;;;;;34.23;23.17;;;10.20;69.30;;;;;;5130171;27;21158;-73
2024/01/20 11:33:23;;;;;;;34.10;24.53;;;9.80;71.40;;;;;;5111507;27;20464;-73
2024/01/20 11:35:51;;;;;;;35.07;25.20;;;9.20;70.60;;;;;;5129550;27;20711;-73
2024/01/20 11:38:17;;;;;;;36.70;24.80;;;8.70;73.10;;;;;;5094667;27;20454;-73
2024/01/20 11:40:43;;;;;;;40.00;28.63;;;8.50;73.20;;;;;;5129941;27;20917;-73
2024/01/20 11:43:11;;;;;;;49.70;29.17;;;8.60;74.80;;;;;;5129993;27;20453;-73
2024/01/20 11:45:38;;;;;;;42.17;27.50;;;8.60;75.90;;;;;;5110674;27;20212;-74
2024/01/20 11:48:04;;;;;;;44.00;27.80;;;8.40;76.30;;;;;;5111177;27;20442;-75
2024/01/20 11:50:30;;;;;;;43.13;28.73;;;8.60;75.10;;;;;;5129309;27;20545;-75
2024/01/20 11:52:55;;;;;;;37.50;25.30;;;8.50;74.70;;;;;;5129254;27;20781;-74
2024/01/20 11:55:21;;;;;;;41.00;27.73;;;8.20;74.90;;;;;;5129107;27;20189;-75
2024/01/20 11:57:46;;;;;;;48.57;32.50;;;8.00;76.30;;;;;;5110448;27;20667;-74
2024/01/20 12:00:14;;;;;;;46.13;29.83;;;7.90;78.30;;;;;;5110538;27;20242;-75
2024/01/20 12:02:50;;;;;;;46.13;29.73;;;7.30;79.40;;;;;;5110265;27;20566;-75
2024/01/20 12:05:16;;;;;;;48.63;30.53;;;6.90;82.60;;;;;;5129195;27;20414;-75
2024/01/20 12:07:41;;;;;;;47.90;33.00;;;6.70;82.10;;;;;;5110445;27;21020;-75
2024/01/20 12:10:07;;;;;;;52.63;33.07;;;6.50;82.40;;;;;;5129024;27;20470;-75
2024/01/20 12:12:33;;;;;;;51.30;33.87;;;6.20;86.40;;;;;;5129023;27;20260;-75
2024/01/20 12:14:59;;;;;;;51.63;33.67;;;5.90;87.50;;;;;;5110450;27;20423;-75
2024/01/20 12:17:24;;;;;;;51.77;32.90;;;5.70;87.10;;;;;;5129030;27;20218;-75
2024/01/20 12:19:50;;;;;;;50.50;32.17;;;5.20;88.30;;;;;;5110141;27;20220;-75
2024/01/20 12:22:16;;;;;;;58.33;33.73;;;4.90;90.10;;;;;;5109718;27;20458;-75
2024/01/20 12:24:49;;;;;;;51.10;32.10;;;4.60;92.60;;;;;;5128157;27;20189;-74